Time;durP1;ratioP1;P1;durP2;ratioP2;P2;SDS_P1;SDS_P2;PMS_P1;PMS_P2;Temp;Humidity;BMP_temperature;BMP_pressure;BME280_temperature;BME280_humidity;BME280_pressure;Samples;Min_cycle;Max_cycle;Signal;HPM_P1;HPM_P2
2023/05/18 00:01:40;;;;;;;7.12;3.17;;;;;;;12.08;75.31;99197.12;4317956;33;33853;-82
2023/05/18 00:04:08;;;;;;;7.57;3.03;;;;;;;12.28;74.68;99194.69;4316045;33;33983;-81
2023/05/18 00:06:36;;;;;;;10.35;3.37;;;;;;;12.11;75.28;99197.16;4316166;33;34375;-81
2023/05/18 00:09:04;;;;;;;5.32;3.28;;;;;;;11.95;75.84;99205.72;4318068;33;34077;-81
2023/05/18 00:11:32;;;;;;;8.15;3.00;;;;;;;12.06;75.63;99204.94;4316981;33;34149;-85
2023/05/18 00:13:59;;;;;;;5.90;2.90;;;;;;;11.97;76.78;99203.97;4317455;33;34004;-85
2023/05/18 00:16:27;;;;;;;7.65;2.92;;;;;;;12.30;75.65;99204.22;4317570;33;33015;-84
2023/05/18 00:18:55;;;;;;;6.25;3.20;;;;;;;12.23;74.38;99199.84;4317894;33;34705;-82
2023/05/18 00:21:29;;;;;;;7.72;3.15;;;;;;;11.72;76.61;99206.34;4317255;33;34230;-83
2023/05/18 00:23:57;;;;;;;6.35;3.42;;;;;;;11.90;76.35;99197.88;4303623;33;32958;-85
2023/05/18 00:26:25;;;;;;;6.20;3.00;;;;;;;11.89;76.41;99198.72;4316590;33;33830;-81
2023/05/18 00:28:53;;;;;;;6.50;3.53;;;;;;;12.09;76.28;99210.16;4304192;33;34000;-85
2023/05/18 00:31:21;;;;;;;9.95;3.70;;;;;;;12.14;75.43;99205.84;4317126;33;35049;-82
2023/05/18 00:33:48;;;;;;;7.78;3.28;;;;;;;11.98;77.12;99205.75;4317067;33;33922;-84
2023/05/18 00:36:16;;;;;;;6.53;4.15;;;;;;;11.80;77.50;99206.41;4292602;33;33758;-85
2023/05/18 00:38:43;;;;;;;5.25;3.28;;;;;;;12.09;76.44;99204.97;4316795;33;34012;-83
2023/05/18 00:41:11;;;;;;;8.25;3.37;;;;;;;11.77;77.92;99214.19;4317454;33;32855;-84
2023/05/18 00:43:40;;;;;;;5.82;3.35;;;;;;;12.38;74.70;99202.53;4317469;33;34118;-82
2023/05/18 00:46:07;;;;;;;6.25;3.70;;;;;;;12.19;76.41;99205.88;4317158;33;33416;-82
2023/05/18 00:48:35;;;;;;;6.03;3.70;;;;;;;12.02;77.63;99208.37;4317853;33;33697;-83
2023/05/18 00:51:04;;;;;;;10.55;4.15;;;;;;;11.75;79.19;99218.50;4312787;33;34133;-83
2023/05/18 00:53:31;;;;;;;8.15;4.00;;;;;;;11.68;80.65;99217.56;4289781;33;33866;-82
2023/05/18 00:56:00;;;;;;;6.62;4.07;;;;;;;11.76;80.36;99223.69;4307083;33;33703;-83
2023/05/18 00:58:27;;;;;;;7.20;3.80;;;;;;;11.74;80.93;99216.75;4310754;33;34348;-83
2023/05/18 01:00:56;;;;;;;8.15;4.57;;;;;;;12.10;77.92;99209.28;4303369;33;35084;-85
2023/05/18 01:03:25;;;;;;;6.95;4.05;;;;;;;11.71;80.81;99222.81;4304260;33;34519;-85
2023/05/18 01:05:56;;;;;;;6.40;3.90;;;;;;;11.50;82.16;99228.66;4316914;33;34167;-83
2023/05/18 01:08:25;;;;;;;6.93;4.62;;;;;;;11.89;80.80;99222.09;4316373;33;34821;-83
2023/05/18 01:11:04;;;;;;;6.72;4.22;;;;;;;11.86;80.80;99228.16;4303525;33;32604;-83
2023/05/18 01:14:04;;;;;;;8.02;4.85;;;;;;;11.99;80.17;99223.94;4299144;33;34677;-82
2023/05/18 01:17:00;;;;;;;9.88;4.25;;;;;;;11.73;81.86;99225.41;4298046;33;33431;-85
2023/05/18 01:19:37;;;;;;;5.97;4.35;;;;;;;11.84;81.13;99234.19;4297536;33;33990;-84
2023/05/18 01:22:11;;;;;;;7.82;5.10;;;;;;;11.68;81.65;99235.75;4316845;33;33844;-82
2023/05/18 01:24:44;;;;;;;7.97;4.93;;;;;;;11.71;82.19;99237.53;4317154;33;33747;-83
2023/05/18 01:27:15;;;;;;;7.32;4.85;;;;;;;12.09;79.91;99235.28;4303975;33;32866;-82
2023/05/18 01:29:47;;;;;;;7.12;5.20;;;;;;;11.36;83.59;99241.47;4303931;33;34766;-85
2023/05/18 01:32:21;;;;;;;8.90;5.25;;;;;;;11.32;84.73;99244.88;4290856;33;34897;-86
2023/05/18 01:34:51;;;;;;;8.68;5.25;;;;;;;11.90;81.36;99242.91;4303158;33;33617;-85
2023/05/18 01:37:18;;;;;;;8.43;5.40;;;;;;;11.69;82.21;99246.13;4316337;33;34127;-84
2023/05/18 01:39:46;;;;;;;8.00;5.65;;;;;;;11.67;82.29;99241.81;4302561;33;34178;-82
2023/05/18 01:42:20;;;;;;;8.15;5.25;;;;;;;11.47;83.64;99248.50;4316887;33;35079;-83
2023/05/18 01:45:00;;;;;;;9.80;5.65;;;;;;;11.57;83.73;99250.34;4292023;33;33392;-82
2023/05/18 01:47:30;;;;;;;9.00;6.43;;;;;;;11.27;85.55;99253.50;4292112;33;33401;-82
2023/05/18 01:50:17;;;;;;;8.68;5.82;;;;;;;11.33;85.38;99250.97;4300470;33;34087;-85
2023/05/18 01:52:51;;;;;;;7.97;5.82;;;;;;;11.53;84.12;99257.25;4300742;33;34018;-85
2023/05/18 01:55:19;;;;;;;8.15;5.72;;;;;;;11.61;83.54;99257.31;4316819;33;34116;-83
2023/05/18 01:57:48;;;;;;;9.07;5.80;;;;;;;11.43;83.71;99264.06;4304175;33;34409;-86
2023/05/18 02:00:17;;;;;;;10.88;7.10;;;;;;;11.37;84.60;99258.81;4303679;33;34721;-83
2023/05/18 02:02:46;;;;;;;8.80;6.15;;;;;;;11.42;83.89;99264.03;4304272;33;34298;-83
2023/05/18 02:05:14;;;;;;;8.65;5.97;;;;;;;11.48;83.93;99263.22;4317454;33;34024;-86
2023/05/18 02:07:42;;;;;;;10.00;6.78;;;;;;;11.83;82.10;99263.59;4317396;33;33423;-84
2023/05/18 02:10:11;;;;;;;11.98;6.57;;;;;;;11.75;82.42;99255.72;4316818;33;33856;-83
2023/05/18 02:12:38;;;;;;;10.93;5.93;;;;;;;11.58;83.21;99262.47;4316819;33;34202;-85
2023/05/18 02:15:07;;;;;;;12.52;6.50;;;;;;;12.07;81.35;99269.03;4317058;33;33802;-84
2023/05/18 02:17:37;;;;;;;10.70;5.55;;;;;;;11.97;81.80;99267.22;4303497;33;34356;-83
2023/05/18 02:20:09;;;;;;;7.93;5.62;;;;;;;11.84;82.47;99270.56;4312564;33;34025;-85
2023/05/18 02:22:37;;;;;;;10.68;5.97;;;;;;;11.34;85.67;99276.06;4317206;33;34302;-85
2023/05/18 02:25:06;;;;;;;9.02;6.40;;;;;;;11.90;82.38;99273.22;4303204;33;32508;-84
2023/05/18 02:27:34;;;;;;;9.77;7.12;;;;;;;11.62;84.05;99274.63;4302691;33;32757;-84
2023/05/18 02:30:04;;;;;;;9.20;6.10;;;;;;;11.47;84.56;99277.94;4316365;33;33663;-85
2023/05/18 02:32:31;;;;;;;10.73;6.20;;;;;;;12.04;81.79;99276.78;4288828;33;34921;-85
2023/05/18 02:35:01;;;;;;;9.20;6.70;;;;;;;11.65;83.78;99275.53;4312043;33;34752;-82
2023/05/18 02:37:33;;;;;;;8.18;6.07;;;;;;;11.84;82.68;99278.34;4302700;33;33019;-82
2023/05/18 02:40:00;;;;;;;8.40;6.28;;;;;;;11.47;84.33;99279.66;4316464;33;34301;-85
2023/05/18 02:42:28;;;;;;;9.02;6.45;;;;;;;11.83;83.00;99279.19;4289128;33;33417;-85
2023/05/18 02:44:56;;;;;;;10.20;6.70;;;;;;;11.87;82.60;99278.38;4303398;33;32322;-85
2023/05/18 02:47:24;;;;;;;11.32;7.43;;;;;;;11.64;83.77;99281.59;4316675;33;34096;-85
2023/05/18 02:49:52;;;;;;;10.00;6.78;;;;;;;11.71;84.08;99290.31;4316929;33;33583;-85
2023/05/18 02:52:20;;;;;;;11.63;6.95;;;;;;;11.76;83.36;99279.97;4304911;33;35242;-85
2023/05/18 02:54:47;;;;;;;8.38;6.70;;;;;;;11.69;83.85;99287.69;4318042;33;34003;-85
2023/05/18 02:57:15;;;;;;;10.23;7.80;;;;;;;11.64;84.52;99283.31;4305152;33;33183;-85
2023/05/18 02:59:43;;;;;;;9.38;7.43;;;;;;;11.48;84.41;99277.09;4318024;33;34730;-85
2023/05/18 03:02:13;;;;;;;12.05;7.55;;;;;;;11.71;84.33;99281.66;4317942;33;34197;-84
2023/05/18 03:04:41;;;;;;;10.00;6.93;;;;;;;11.65;84.38;99283.31;4317839;33;34840;-84
2023/05/18 03:07:09;;;;;;;12.45;7.22;;;;;;;11.52;84.93;99286.66;4317947;33;34293;-84
2023/05/18 03:09:37;;;;;;;9.70;7.18;;;;;;;12.11;82.02;99281.19;4304257;33;33330;-85
2023/05/18 03:12:05;;;;;;;9.93;6.80;;;;;;;11.79;83.54;99293.00;4318048;33;34315;-84
2023/05/18 03:14:35;;;;;;;10.65;7.20;;;;;;;11.70;83.86;99278.16;4288109;33;33646;-84
2023/05/18 03:17:04;;;;;;;8.40;6.00;;;;;;;11.72;84.31;99286.00;4317943;33;33454;-85
2023/05/18 03:19:33;;;;;;;9.65;6.28;;;;;;;11.99;82.71;99290.63;4317634;33;34118;-84
2023/05/18 03:22:02;;;;;;;8.35;6.15;;;;;;;12.11;82.13;99288.12;4304563;33;33690;-85
2023/05/18 03:24:39;;;;;;;8.82;6.15;;;;;;;12.22;81.25;99281.28;4318099;33;34329;-85
2023/05/18 03:27:07;;;;;;;9.95;6.20;;;;;;;11.65;84.12;99287.66;4304086;33;33146;-85
2023/05/18 03:29:35;;;;;;;8.95;6.70;;;;;;;12.25;80.84;99277.84;4317874;33;33413;-83
2023/05/18 03:32:03;;;;;;;8.23;6.12;;;;;;;11.87;83.09;99286.19;4305019;33;35082;-85
2023/05/18 03:34:31;;;;;;;9.45;6.18;;;;;;;11.76;84.20;99291.22;4317765;33;34449;-85
2023/05/18 03:37:00;;;;;;;9.90;6.57;;;;;;;11.44;85.39;99296.09;4317688;33;33273;-85
2023/05/18 03:39:28;;;;;;;9.40;6.97;;;;;;;11.78;84.00;99294.72;4306164;33;34123;-85
2023/05/18 03:41:56;;;;;;;8.65;6.87;;;;;;;12.01;83.19;99297.56;4318977;33;34917;-85
2023/05/18 03:44:24;;;;;;;9.07;6.68;;;;;;;12.07;83.11;99300.22;4317825;33;33996;-85
2023/05/18 03:46:52;;;;;;;10.40;7.35;;;;;;;11.65;84.97;99306.69;4317766;33;34066;-83
2023/05/18 03:49:20;;;;;;;10.55;7.43;;;;;;;11.76;84.06;99309.41;4316006;33;33991;-85
2023/05/18 03:51:47;;;;;;;10.13;7.10;;;;;;;11.77;83.78;99310.28;4304575;33;33768;-84
2023/05/18 03:54:15;;;;;;;11.93;7.47;;;;;;;11.51;85.63;99318.66;4304115;33;34731;-83
2023/05/18 03:56:43;;;;;;;9.45;7.30;;;;;;;11.90;83.24;99312.19;4317092;33;34190;-85
2023/05/18 03:59:10;;;;;;;9.43;7.05;;;;;;;12.37;80.35;99316.94;4317533;33;33941;-85
2023/05/18 04:01:41;;;;;;;10.02;7.65;;;;;;;11.99;82.20;99322.66;4316866;33;32815;-85
2023/05/18 04:04:16;;;;;;;10.73;8.05;;;;;;;11.97;82.46;99319.19;4317548;33;33514;-85
2023/05/18 04:06:45;;;;;;;9.75;7.10;;;;;;;11.77;83.99;99321.53;4317375;33;33894;-84
2023/05/18 04:09:16;;;;;;;10.32;8.05;;;;;;;12.04;82.67;99320.09;4317430;33;32821;-85
2023/05/18 04:11:44;;;;;;;10.18;7.28;;;;;;;12.15;82.04;99319.34;4317951;33;34720;-84
2023/05/18 04:14:13;;;;;;;11.40;7.40;;;;;;;12.13;82.11;99321.06;4317321;33;33805;-83
2023/05/18 04:16:40;;;;;;;11.90;7.65;;;;;;;11.94;83.16;99324.34;4304242;33;34313;-83
2023/05/18 04:19:09;;;;;;;11.43;7.53;;;;;;;11.58;84.84;99335.19;4317104;33;34605;-84
2023/05/18 04:21:36;;;;;;;11.27;8.10;;;;;;;11.54;85.38;99323.88;4304277;33;33601;-86
2023/05/18 04:24:06;;;;;;;13.13;8.32;;;;;;;11.32;86.89;99327.94;4317465;33;35006;-85
2023/05/18 04:26:35;;;;;;;11.30;8.30;;;;;;;11.58;85.91;99333.44;4304332;33;33420;-85
2023/05/18 04:29:03;;;;;;;12.10;9.45;;;;;;;11.44;86.38;99337.63;4317233;33;33717;-85
2023/05/18 04:31:31;;;;;;;10.52;7.93;;;;;;;11.58;85.81;99336.06;4315858;33;34879;-82
2023/05/18 04:33:59;;;;;;;11.12;8.43;;;;;;;11.69;85.04;99339.63;4319171;33;33827;-85
2023/05/18 04:36:29;;;;;;;11.07;8.45;;;;;;;11.84;84.65;99345.87;4317802;33;33292;-84
2023/05/18 04:39:02;;;;;;;12.95;8.20;;;;;;;11.90;84.00;99338.19;4303570;33;32419;-85
2023/05/18 04:41:32;;;;;;;11.25;8.45;;;;;;;11.87;84.45;99345.94;4303746;33;34504;-83
2023/05/18 04:44:01;;;;;;;10.57;8.45;;;;;;;11.80;84.73;99339.75;4316978;33;33981;-84
2023/05/18 04:46:29;;;;;;;11.23;8.32;;;;;;;11.86;84.47;99339.00;4317613;33;33854;-85
2023/05/18 04:48:57;;;;;;;11.48;8.48;;;;;;;11.68;85.64;99337.03;4317229;33;34035;-85
2023/05/18 04:51:24;;;;;;;11.12;7.85;;;;;;;11.96;84.21;99342.53;4317767;33;35001;-86
2023/05/18 04:53:54;;;;;;;11.80;9.00;;;;;;;11.83;84.54;99339.84;4317449;33;34602;-85
2023/05/18 04:56:21;;;;;;;11.82;8.82;;;;;;;11.99;84.50;99339.97;4304056;33;33594;-85
2023/05/18 04:58:50;;;;;;;11.95;8.13;;;;;;;11.96;84.64;99340.81;4317347;33;33800;-84
2023/05/18 05:01:18;;;;;;;13.10;9.73;;;;;;;11.88;83.91;99340.75;4304069;33;32922;-85
2023/05/18 05:03:45;;;;;;;11.15;8.65;;;;;;;11.58;86.49;99340.38;4303700;33;34411;-84
2023/05/18 05:06:14;;;;;;;13.32;8.98;;;;;;;12.22;81.97;99345.41;4303994;33;34734;-85
2023/05/18 05:08:42;;;;;;;11.38;8.75;;;;;;;12.08;83.69;99343.53;4296615;33;32223;-84
2023/05/18 05:11:09;;;;;;;11.68;9.10;;;;;;;12.12;83.67;99345.31;4317281;33;33319;-85
2023/05/18 05:13:37;;;;;;;11.32;9.40;;;;;;;12.09;83.37;99354.81;4316619;33;33708;-85
2023/05/18 05:16:05;;;;;;;12.40;9.35;;;;;;;12.31;82.31;99356.75;4317255;33;33421;-85
2023/05/18 05:18:32;;;;;;;12.68;9.80;;;;;;;12.36;81.86;99359.38;4316996;33;33678;-84
2023/05/18 05:21:00;;;;;;;12.18;10.13;;;;;;;12.11;83.17;99355.69;4317544;33;34159;-85
2023/05/18 05:23:28;;;;;;;13.35;9.60;;;;;;;11.86;84.67;99359.78;4317126;33;34346;-84
2023/05/18 05:25:56;;;;;;;12.52;9.77;;;;;;;11.97;84.72;99358.16;4317279;33;33594;-85
2023/05/18 05:28:26;;;;;;;12.65;10.27;;;;;;;12.12;84.32;99353.13;4317588;33;34839;-84
2023/05/18 05:30:53;;;;;;;11.95;9.20;;;;;;;12.35;83.70;99363.72;4317676;33;34160;-85
2023/05/18 05:33:21;;;;;;;12.18;9.55;;;;;;;12.18;84.26;99365.28;4317093;33;33697;-84
2023/05/18 05:35:52;;;;;;;11.32;9.45;;;;;;;12.15;83.69;99368.72;4317263;33;33084;-84
2023/05/18 05:38:19;;;;;;;13.48;10.50;;;;;;;12.24;84.03;99364.50;4303298;33;34332;-84
2023/05/18 05:40:47;;;;;;;11.57;9.45;;;;;;;12.17;84.37;99374.81;4317065;33;33620;-84
2023/05/18 05:43:15;;;;;;;12.75;9.20;;;;;;;12.31;83.55;99366.25;4317320;33;33902;-85
2023/05/18 05:45:44;;;;;;;11.48;8.38;;;;;;;12.43;82.86;99370.72;4317500;33;34399;-85
2023/05/18 05:48:12;;;;;;;14.18;9.70;;;;;;;12.53;82.69;99368.19;4316560;33;33736;-85
2023/05/18 05:50:40;;;;;;;12.00;9.23;;;;;;;12.14;84.74;99369.59;4317203;33;34131;-84
2023/05/18 05:53:08;;;;;;;12.27;9.43;;;;;;;12.21;84.41;99380.06;4317305;33;34264;-84
2023/05/18 05:55:40;;;;;;;12.68;9.80;;;;;;;12.45;83.35;99377.66;4303422;33;33235;-85
2023/05/18 05:58:09;;;;;;;15.00;9.45;;;;;;;12.64;82.40;99378.69;4317025;33;33806;-85
2023/05/18 06:00:36;;;;;;;11.85;8.82;;;;;;;12.77;81.44;99379.66;4317532;33;34737;-84
2023/05/18 06:03:04;;;;;;;10.52;8.50;;;;;;;12.62;82.14;99388.22;4316914;33;33612;-85
2023/05/18 06:05:33;;;;;;;9.05;7.57;;;;;;;12.91;80.24;99381.47;4303918;33;33316;-84
2023/05/18 06:08:01;;;;;;;11.00;7.80;;;;;;;12.87;80.22;99384.06;4316774;33;34250;-84
2023/05/18 06:10:29;;;;;;;10.77;8.52;;;;;;;12.35;82.44;99388.81;4316919;33;34425;-85
2023/05/18 06:12:57;;;;;;;10.25;8.57;;;;;;;12.41;83.80;99397.56;4303417;33;33791;-85
2023/05/18 06:15:25;;;;;;;11.68;8.02;;;;;;;12.93;79.85;99389.31;4303280;33;33468;-84
2023/05/18 06:17:53;;;;;;;11.35;8.02;;;;;;;12.65;81.79;99401.22;4303395;33;34433;-82
2023/05/18 06:20:21;;;;;;;10.77;8.60;;;;;;;12.62;82.41;99399.47;4316987;33;34996;-84
2023/05/18 06:22:48;;;;;;;11.43;9.10;;;;;;;12.63;81.96;99400.34;4303984;33;33307;-85
2023/05/18 06:25:17;;;;;;;12.75;9.13;;;;;;;12.80;81.38;99403.06;4316440;33;33585;-85
2023/05/18 06:27:44;;;;;;;12.70;9.00;;;;;;;12.44;83.45;99403.66;4316651;33;33180;-82
2023/05/18 06:30:12;;;;;;;10.95;8.73;;;;;;;12.72;81.69;99409.94;4303678;33;33620;-84
2023/05/18 06:32:40;;;;;;;11.68;8.57;;;;;;;12.73;81.76;99407.37;4279929;33;32322;-85
2023/05/18 06:35:08;;;;;;;10.15;8.00;;;;;;;12.48;84.21;99418.44;4303826;33;32758;-85
2023/05/18 06:37:36;;;;;;;11.90;8.45;;;;;;;12.79;82.24;99409.16;4316469;33;34536;-84
2023/05/18 06:40:06;;;;;;;9.90;7.47;;;;;;;13.13;81.39;99408.50;4316467;33;34269;-84
2023/05/18 06:42:33;;;;;;;11.05;7.70;;;;;;;12.97;81.61;99406.69;4316794;33;33868;-86
2023/05/18 06:45:02;;;;;;;10.88;8.07;;;;;;;12.77;82.62;99416.09;4316788;33;33155;-84
2023/05/18 06:47:33;;;;;;;15.93;8.20;;;;;;;13.05;81.37;99417.16;4316334;33;34675;-85
2023/05/18 06:50:01;;;;;;;9.75;7.45;;;;;;;13.18;80.56;99416.34;4303004;33;34569;-85
2023/05/18 06:52:28;;;;;;;11.93;7.93;;;;;;;13.24;80.29;99418.16;4316728;33;34525;-84
2023/05/18 06:54:56;;;;;;;9.95;7.70;;;;;;;12.78;82.95;99428.22;4303076;33;33370;-84
2023/05/18 06:57:24;;;;;;;10.75;8.20;;;;;;;12.99;81.97;99433.56;4316483;33;34741;-82
2023/05/18 06:59:52;;;;;;;10.80;7.70;;;;;;;13.12;81.53;99426.75;4316373;33;33832;-84
2023/05/18 07:02:21;;;;;;;9.50;7.30;;;;;;;13.21;80.33;99426.78;4316637;33;33503;-85
2023/05/18 07:04:49;;;;;;;10.80;7.62;;;;;;;13.28;79.59;99430.34;4316649;33;33520;-84
2023/05/18 07:07:16;;;;;;;11.70;8.10;;;;;;;12.75;82.67;99436.00;4302484;33;33091;-84
2023/05/18 07:09:44;;;;;;;12.20;8.85;;;;;;;12.61;84.00;99438.47;4316432;33;33592;-84
2023/05/18 07:12:12;;;;;;;10.48;8.27;;;;;;;12.35;85.50;99443.41;4316504;33;35467;-85
2023/05/18 07:14:39;;;;;;;12.82;8.00;;;;;;;13.09;81.77;99435.38;4316188;33;33226;-84
2023/05/18 07:17:08;;;;;;;11.52;8.32;;;;;;;12.71;83.82;99435.09;4316291;33;33906;-84
2023/05/18 07:19:35;;;;;;;10.18;7.90;;;;;;;12.96;83.20;99443.13;4316115;33;34974;-84
2023/05/18 07:22:03;;;;;;;10.70;8.00;;;;;;;12.87;83.97;99441.28;4315668;33;33324;-84
2023/05/18 07:24:31;;;;;;;9.65;7.25;;;;;;;13.14;82.49;99444.13;4316072;33;33297;-83
2023/05/18 07:26:58;;;;;;;8.55;6.75;;;;;;;13.54;80.62;99436.56;4315854;33;33035;-84
2023/05/18 07:29:28;;;;;;;8.80;6.00;;;;;;;13.04;82.80;99447.50;4315670;33;35097;-85
2023/05/18 07:31:58;;;;;;;8.85;6.43;;;;;;;13.05;82.97;99450.97;4315969;33;35146;-85
2023/05/18 07:34:26;;;;;;;9.07;6.55;;;;;;;13.35;81.47;99445.13;4309099;33;224881;-84
2023/05/18 07:36:53;;;;;;;8.38;6.15;;;;;;;13.39;81.83;99446.91;4316791;33;33949;-85
2023/05/18 07:39:27;;;;;;;9.88;5.62;;;;;;;13.60;80.38;99441.81;4304711;33;34702;-84
2023/05/18 07:41:55;;;;;;;8.10;4.75;;;;;;;13.60;80.39;99449.63;4317172;33;33826;-85
2023/05/18 07:44:23;;;;;;;8.30;5.30;;;;;;;13.95;78.33;99445.44;4304393;33;33375;-83
2023/05/18 07:46:50;;;;;;;7.68;4.25;;;;;;;13.63;80.26;99460.03;4296977;33;33671;-84
2023/05/18 07:49:18;;;;;;;6.80;4.00;;;;;;;13.82;78.95;99452.31;4318062;33;33670;-84
2023/05/18 07:51:46;;;;;;;6.00;3.97;;;;;;;13.66;80.89;99458.34;4306666;33;34140;-85
2023/05/18 07:54:13;;;;;;;7.37;3.87;;;;;;;13.65;80.94;99459.19;4312606;33;34170;-83
2023/05/18 07:56:42;;;;;;;7.28;4.07;;;;;;;13.79;81.28;99460.16;4317590;33;34257;-84
2023/05/18 07:59:10;;;;;;;6.80;3.72;;;;;;;13.69;81.84;99466.16;4318008;33;34019;-83
2023/05/18 08:01:37;;;;;;;6.70;3.87;;;;;;;14.01;80.28;99454.13;4318045;33;33760;-84
2023/05/18 08:04:05;;;;;;;7.70;3.22;;;;;;;13.92;80.89;99458.44;4317808;33;34387;-84
2023/05/18 08:06:33;;;;;;;5.53;2.97;;;;;;;13.78;82.59;99455.78;4317867;33;33840;-83
2023/05/18 08:09:00;;;;;;;5.32;2.80;;;;;;;13.59;83.92;99457.41;4304329;33;32610;-85
2023/05/18 08:11:28;;;;;;;5.82;2.40;;;;;;;13.74;83.08;99467.03;4317778;33;34331;-85
2023/05/18 08:13:55;;;;;;;5.03;2.22;;;;;;;14.14;80.24;99459.41;4304300;33;32216;-83
2023/05/18 08:16:23;;;;;;;3.05;1.80;;;;;;;13.71;82.88;99467.03;4317727;33;34320;-84
2023/05/18 08:18:51;;;;;;;2.70;1.48;;;;;;;13.50;83.66;99468.66;4317639;33;34254;-84
2023/05/18 08:21:18;;;;;;;2.25;1.20;;;;;;;13.55;84.06;99482.56;4317465;33;34958;-85
2023/05/18 08:23:45;;;;;;;2.58;1.30;;;;;;;13.90;82.42;99479.28;4317573;33;32908;-84
2023/05/18 08:26:13;;;;;;;2.00;0.88;;;;;;;13.67;82.86;99480.91;4317271;33;33648;-84
2023/05/18 08:28:41;;;;;;;2.03;1.05;;;;;;;13.61;83.22;99477.41;4317666;33;33886;-84
2023/05/18 08:31:11;;;;;;;2.62;0.80;;;;;;;13.61;83.21;99481.75;4317550;33;33893;-85
2023/05/18 08:33:39;;;;;;;2.62;1.02;;;;;;;14.13;80.54;99476.78;4317376;33;33472;-84
2023/05/18 08:36:07;;;;;;;4.45;0.70;;;;;;;13.90;81.85;99471.44;4304248;33;33874;-83
2023/05/18 08:38:35;;;;;;;2.17;0.80;;;;;;;14.04;81.85;99479.34;4304103;33;33950;-84
2023/05/18 08:41:22;;;;;;;2.50;0.80;;;;;;;14.20;80.71;99480.25;4317458;33;33996;-85
2023/05/18 08:43:53;;;;;;;3.15;1.02;;;;;;;14.23;81.05;99477.66;4292137;33;34169;-84
2023/05/18 08:46:34;;;;;;;2.65;1.12;;;;;;;14.34;80.61;99483.78;4304493;33;33924;-85
2023/05/18 08:49:03;;;;;;;4.40;1.17;;;;;;;14.49;79.70;99483.84;4317400;33;34915;-85
2023/05/18 08:51:36;;;;;;;4.35;1.60;;;;;;;14.60;79.07;99487.34;4317936;33;34546;-84
2023/05/18 08:54:04;;;;;;;5.00;2.67;;;;;;;14.42;81.37;99489.87;4317881;33;33308;-84
2023/05/18 08:56:33;;;;;;;3.03;1.15;;;;;;;15.00;78.38;99492.63;4317352;33;34689;-84
2023/05/18 08:59:03;;;;;;;3.33;0.90;;;;;;;14.86;77.10;99489.13;4317051;33;33717;-84
2023/05/18 09:01:31;;;;;;;2.50;1.00;;;;;;;14.61;78.17;99488.22;4317255;33;34008;-85
2023/05/18 09:03:59;;;;;;;4.87;2.22;;;;;;;14.78;78.89;99486.50;4317370;33;33188;-84
2023/05/18 09:06:27;;;;;;;2.90;1.12;;;;;;;14.77;79.66;99486.50;4292415;33;33250;-84
2023/05/18 09:08:58;;;;;;;2.65;1.25;;;;;;;14.53;80.54;99483.00;4317333;33;34197;-82
2023/05/18 09:11:26;;;;;;;1.90;1.12;;;;;;;14.81;77.74;99485.63;4304328;33;34204;-85
2023/05/18 09:13:54;;;;;;;3.85;1.30;;;;;;;14.20;80.78;99480.25;4317309;33;33986;-85
2023/05/18 09:16:21;;;;;;;3.50;1.45;;;;;;;14.67;79.75;99482.16;4304208;33;33729;-85
2023/05/18 09:18:50;;;;;;;6.45;2.00;;;;;;;14.90;79.35;99485.66;4304072;33;33848;-81
2023/05/18 09:21:18;;;;;;;5.68;4.22;;;;;;;14.85;79.03;99487.41;4317450;33;34015;-81
2023/05/18 09:23:46;;;;;;;5.87;3.70;;;;;;;15.16;74.83;99480.44;4317213;33;33569;-85
2023/05/18 09:26:14;;;;;;;4.10;1.55;;;;;;;15.34;75.28;99479.50;4317568;33;33744;-84
2023/05/18 09:28:42;;;;;;;1.98;1.00;;;;;;;15.48;76.32;99482.97;4304391;33;33986;-85
2023/05/18 09:31:16;;;;;;;2.55;1.37;;;;;;;15.25;77.39;99492.59;4304151;33;33846;-84
2023/05/18 09:33:44;;;;;;;3.45;1.50;;;;;;;14.83;80.85;99487.38;4304313;33;32976;-85
2023/05/18 09:36:14;;;;;;;2.47;0.88;;;;;;;15.24;78.43;99493.47;4304219;33;34543;-85
2023/05/18 09:38:45;;;;;;;1.87;0.77;;;;;;;15.03;76.28;99489.13;4291989;33;33484;-85
2023/05/18 09:41:16;;;;;;;1.15;0.70;;;;;;;15.34;75.35;99489.97;4317365;33;33828;-82
2023/05/18 09:43:45;;;;;;;1.70;0.80;;;;;;;15.15;75.11;99490.84;4303875;33;34405;-82
2023/05/18 09:46:13;;;;;;;2.72;1.10;;;;;;;14.97;77.54;99496.97;4317551;33;34107;-85
2023/05/18 09:48:44;;;;;;;1.37;0.70;;;;;;;15.22;75.49;99497.81;4303720;33;34141;-85
2023/05/18 09:51:15;;;;;;;3.53;1.10;;;;;;;15.07;78.34;99494.34;4303897;33;34478;-85
2023/05/18 09:53:53;;;;;;;1.30;0.70;;;;;;;15.25;76.99;99500.44;4316799;33;33716;-85
2023/05/18 09:56:21;;;;;;;1.85;0.85;;;;;;;15.49;76.18;99491.69;4317032;33;33576;-85
2023/05/18 09:58:50;;;;;;;3.55;1.10;;;;;;;15.31;76.22;99495.22;4303230;33;34877;-84
2023/05/18 10:01:18;;;;;;;2.65;0.93;;;;;;;15.43;76.03;99503.03;4316963;33;34009;-84
2023/05/18 10:03:47;;;;;;;3.33;1.33;;;;;;;15.30;77.58;99510.03;4317261;33;33907;-85
2023/05/18 10:06:18;;;;;;;2.72;1.27;;;;;;;15.13;77.66;99503.06;4304227;33;34523;-85
2023/05/18 10:08:46;;;;;;;3.47;1.02;;;;;;;14.67;79.36;99503.03;4317257;33;34227;-85
2023/05/18 10:11:17;;;;;;;3.17;1.37;;;;;;;15.02;77.04;99498.69;4316860;33;34128;-85
2023/05/18 10:13:45;;;;;;;2.42;1.02;;;;;;;15.30;76.42;99496.06;4317186;33;33459;-85
2023/05/18 10:16:15;;;;;;;2.55;1.30;;;;;;;15.44;76.69;99496.91;4317356;33;33855;-86
2023/05/18 10:18:44;;;;;;;2.58;1.12;;;;;;;15.46;76.75;99495.19;4303725;33;34998;-85
2023/05/18 10:21:13;;;;;;;2.90;1.10;;;;;;;15.35;77.10;99502.19;4317297;33;33738;-85
2023/05/18 10:23:43;;;;;;;3.50;1.08;;;;;;;15.56;75.59;99499.50;4303810;33;33231;-84
2023/05/18 10:26:11;;;;;;;2.00;0.90;;;;;;;15.60;76.42;99502.12;4303469;33;33766;-85
2023/05/18 10:28:48;;;;;;;2.47;1.10;;;;;;;15.52;74.54;99500.38;4303465;33;34668;-85
2023/05/18 10:31:16;;;;;;;3.08;1.25;;;;;;;15.82;72.94;99496.00;4303579;33;33968;-84
2023/05/18 10:33:45;;;;;;;5.87;1.37;;;;;;;15.89;71.93;99497.72;4317086;33;33373;-84
2023/05/18 10:36:14;;;;;;;1.98;1.10;;;;;;;15.87;71.50;99491.59;4303691;33;33754;-84
2023/05/18 10:38:44;;;;;;;2.28;1.10;;;;;;;15.64;73.84;99503.84;4303624;33;33948;-85
2023/05/18 10:41:12;;;;;;;2.30;1.33;;;;;;;15.82;74.43;99503.84;4303666;33;33934;-85
2023/05/18 10:43:40;;;;;;;2.17;1.10;;;;;;;15.74;73.96;99508.22;4316602;33;33270;-85
2023/05/18 10:46:08;;;;;;;3.55;1.33;;;;;;;15.73;75.20;99498.66;4303004;33;33929;-85
2023/05/18 10:48:39;;;;;;;2.25;1.17;;;;;;;15.69;75.99;99499.53;4316417;33;33784;-85
2023/05/18 10:51:07;;;;;;;2.55;1.20;;;;;;;15.91;74.43;99495.09;4316163;33;33683;-85
2023/05/18 10:53:35;;;;;;;2.65;1.25;;;;;;;15.58;76.30;99500.38;4316188;33;33291;-85
2023/05/18 10:56:03;;;;;;;3.35;1.45;;;;;;;15.73;76.00;99496.03;4315935;33;34734;-84
2023/05/18 10:58:30;;;;;;;2.60;1.27;;;;;;;15.78;75.99;99499.50;4315944;33;34523;-85
2023/05/18 11:01:00;;;;;;;2.10;1.08;;;;;;;15.93;76.12;99504.66;4315858;33;34985;-85
2023/05/18 11:03:29;;;;;;;1.73;0.90;;;;;;;15.63;75.98;99496.88;4303060;33;33388;-84
2023/05/18 11:06:07;;;;;;;3.33;1.40;;;;;;;15.58;75.91;99503.00;4290843;33;34718;-85
2023/05/18 11:08:50;;;;;;;3.50;1.45;;;;;;;15.63;76.59;99502.12;4316308;33;34283;-84
2023/05/18 11:11:23;;;;;;;2.45;1.10;;;;;;;15.84;76.22;99499.47;4303861;33;35492;-84
2023/05/18 11:13:50;;;;;;;2.75;1.15;;;;;;;15.66;75.37;99504.75;4304988;33;33787;-85
2023/05/18 11:16:19;;;;;;;1.92;1.17;;;;;;;15.91;75.66;99503.81;4318173;33;34123;-85
2023/05/18 11:18:49;;;;;;;3.40;1.10;;;;;;;16.04;75.44;99496.78;4293274;33;34811;-85
2023/05/18 11:21:23;;;;;;;3.05;1.12;;;;;;;15.85;76.12;99506.44;4304930;33;34498;-85
2023/05/18 11:24:28;;;;;;;2.90;1.30;;;;;;;15.88;76.15;99506.44;4317922;33;35063;-85
2023/05/18 11:26:57;;;;;;;2.62;1.50;;;;;;;15.62;76.82;99509.09;4318221;33;34092;-85
2023/05/18 11:29:34;;;;;;;2.87;1.42;;;;;;;16.05;75.28;99508.97;4318073;33;34024;-85
2023/05/18 11:32:02;;;;;;;2.50;1.23;;;;;;;15.79;75.63;99520.37;4318113;33;35388;-85
2023/05/18 11:34:46;;;;;;;2.97;1.30;;;;;;;15.48;77.13;99521.31;4304795;33;33356;-85
2023/05/18 11:37:37;;;;;;;6.07;1.48;;;;;;;15.44;77.06;99519.56;4305027;33;34782;-85
2023/05/18 11:40:12;;;;;;;3.30;1.23;;;;;;;15.80;75.78;99513.44;4313273;33;34663;-85